createdAt,value
2022-08-16T00:03:15.619Z,97943.00
2022-08-16T00:08:36.690Z,97956.88
2022-08-16T00:13:54.174Z,97947.94
2022-08-16T00:19:00.680Z,97947.97
2022-08-16T00:24:06.254Z,97938.56
2022-08-16T00:29:20.002Z,97947.84
2022-08-16T00:34:43.359Z,97961.09
2022-08-16T00:39:57.225Z,97954.38
2022-08-16T00:45:12.066Z,97960.16
2022-08-16T00:50:17.680Z,97960.88
2022-08-16T00:55:25.334Z,97959.66
2022-08-16T01:00:54.052Z,97959.88
2022-08-16T01:05:59.922Z,97965.59
2022-08-16T01:11:26.191Z,97955.38
2022-08-16T01:16:35.040Z,97962.38
2022-08-16T01:21:47.159Z,97959.00
2022-08-16T01:26:59.054Z,97953.75
2022-08-16T01:32:09.310Z,97943.41
2022-08-16T01:37:16.351Z,97951.59
2022-08-16T01:42:25.444Z,97964.16
2022-08-16T01:47:33.051Z,97956.88
2022-08-16T01:52:38.709Z,97962.19
2022-08-16T01:57:56.897Z,97956.41
2022-08-16T02:03:05.338Z,97961.09
2022-08-16T02:08:33.412Z,97966.75
2022-08-16T02:13:41.859Z,97962.53
2022-08-16T02:18:50.364Z,97958.13
2022-08-16T02:23:57.195Z,97973.19
2022-08-16T02:29:04.809Z,97964.28
2022-08-16T02:34:19.513Z,97974.19
2022-08-16T02:39:37.974Z,97971.22
2022-08-16T02:44:49.112Z,97968.13
2022-08-16T02:49:59.084Z,97974.09
2022-08-16T02:55:40.944Z,97987.44
2022-08-16T03:00:50.227Z,97996.78
2022-08-16T03:05:56.074Z,97998.50
2022-08-16T03:11:02.288Z,98001.03
2022-08-16T03:16:32.745Z,98004.72
2022-08-16T03:21:38.791Z,98004.34
2022-08-16T03:26:46.264Z,98001.25
2022-08-16T03:31:54.337Z,98002.50
2022-08-16T03:37:01.050Z,98015.44
2022-08-16T03:42:09.689Z,98013.31
2022-08-16T03:47:19.818Z,98022.75
2022-08-16T03:52:31.359Z,98014.69
2022-08-16T03:57:40.615Z,98021.63
2022-08-16T04:02:50.681Z,98017.03
2022-08-16T04:07:58.444Z,98015.06
2022-08-16T04:13:04.877Z,98029.75
2022-08-16T04:18:27.724Z,98032.19
2022-08-16T04:23:38.036Z,98048.09
2022-08-16T04:28:55.935Z,98054.56
2022-08-16T04:34:11.208Z,98056.28
2022-08-16T04:39:18.749Z,98059.97
2022-08-16T04:44:32.451Z,98068.78
2022-08-16T04:49:57.183Z,98073.63
2022-08-16T04:55:03.463Z,98077.09
2022-08-16T05:00:31.157Z,98074.06
2022-08-16T05:05:55.335Z,98070.06
2022-08-16T05:11:09.163Z,98073.19
2022-08-16T05:16:21.797Z,98072.47
2022-08-16T05:21:38.485Z,98077.97
2022-08-16T05:26:51.329Z,98081.41
2022-08-16T05:31:58.062Z,98086.84
2022-08-16T05:37:06.270Z,98088.22
2022-08-16T05:42:14.631Z,98093.81
2022-08-16T05:47:25.686Z,98084.22
2022-08-16T05:52:40.858Z,98086.56
2022-08-16T05:57:52.622Z,98091.03
2022-08-16T06:03:00.223Z,98092.84
2022-08-16T06:08:44.992Z,98097.25
2022-08-16T06:13:55.386Z,98097.91
2022-08-16T06:19:12.934Z,98102.03
2022-08-16T06:24:54.955Z,98104.41
2022-08-16T06:29:53.750Z,98119.94
2022-08-16T06:35:02.847Z,98108.91
2022-08-16T06:40:15.701Z,98111.38
2022-08-16T06:45:29.158Z,98112.16
2022-08-16T06:50:52.079Z,98115.28
2022-08-16T06:56:14.382Z,98117.75
2022-08-16T07:01:54.313Z,98131.66
2022-08-16T07:07:05.722Z,98141.91
2022-08-16T07:12:15.415Z,98152.94
2022-08-16T07:17:28.296Z,98145.44
2022-08-16T07:22:39.725Z,98154.31
2022-08-16T07:27:59.361Z,98156.75
2022-08-16T07:33:08.076Z,98168.63
2022-08-16T07:38:17.245Z,98170.94
2022-08-16T07:43:35.869Z,98161.31
2022-08-16T07:48:47.673Z,98169.84
2022-08-16T07:54:02.510Z,98185.94
2022-08-16T07:59:21.799Z,98185.13
2022-08-16T08:04:48.109Z,98189.97
2022-08-16T08:09:54.467Z,98185.75
2022-08-16T08:15:04.114Z,98183.22
2022-08-16T08:20:12.796Z,98177.78
2022-08-16T08:25:26.142Z,98196.63
2022-08-16T08:31:00.808Z,98194.13
2022-08-16T08:36:21.606Z,98203.59
2022-08-16T08:41:29.564Z,98198.59
2022-08-16T08:46:40.962Z,98208.97
2022-08-16T08:51:46.466Z,98199.31
2022-08-16T08:56:54.919Z,98211.22
2022-08-16T09:02:29.401Z,98204.16
2022-08-16T09:08:01.021Z,98196.84
2022-08-16T09:13:12.236Z,98185.53
2022-08-16T09:18:35.703Z,98189.22
2022-08-16T09:23:46.903Z,98200.00
2022-08-16T09:29:15.697Z,98205.59
2022-08-16T09:34:20.555Z,98197.59
2022-08-16T09:39:25.705Z,98202.72
2022-08-16T09:45:10.780Z,98191.09
2022-08-16T09:50:22.500Z,98189.03
2022-08-16T09:55:28.203Z,98188.34
2022-08-16T10:00:44.285Z,98180.88
2022-08-16T10:05:53.496Z,98181.03
2022-08-16T10:11:13.731Z,98186.59
2022-08-16T10:16:18.784Z,98179.56
2022-08-16T10:21:32.113Z,98172.25
2022-08-16T10:27:16.384Z,98168.13
2022-08-16T10:32:03.514Z,98177.53
2022-08-16T10:37:11.194Z,98165.47
2022-08-16T10:42:17.474Z,98164.41
2022-08-16T10:47:26.559Z,98178.63
2022-08-16T10:58:11.635Z,98164.84
2022-08-16T11:08:46.365Z,98174.47
2022-08-16T11:14:11.440Z,98171.16
2022-08-16T11:19:17.086Z,98161.44
2022-08-16T11:24:41.392Z,98174.03
2022-08-16T11:29:48.840Z,98167.03
2022-08-16T11:35:13.571Z,98160.50
2022-08-16T11:40:21.875Z,98164.84
2022-08-16T11:45:42.342Z,98153.66
2022-08-16T11:50:48.547Z,98155.81
2022-08-16T11:55:59.081Z,98149.50
2022-08-16T12:01:04.609Z,98144.81
2022-08-16T12:06:25.515Z,98152.44
2022-08-16T12:11:38.102Z,98146.88
2022-08-16T12:16:48.689Z,98135.53
2022-08-16T12:22:00.569Z,98139.56
2022-08-16T12:27:09.621Z,98150.19
2022-08-16T12:32:35.921Z,98145.69
2022-08-16T12:37:41.620Z,98141.38
2022-08-16T12:42:52.748Z,98136.75
2022-08-16T12:48:32.623Z,98131.72
2022-08-16T12:53:39.793Z,98130.97
2022-08-16T12:58:51.393Z,98121.25
2022-08-16T13:04:11.929Z,98120.34
2022-08-16T13:09:26.832Z,98119.66
2022-08-16T13:14:45.223Z,98124.75
2022-08-16T13:20:07.021Z,98122.13
2022-08-16T13:25:19.456Z,98125.75
2022-08-16T13:30:37.214Z,98120.13
2022-08-16T13:35:55.747Z,98126.31
2022-08-16T13:41:04.841Z,98123.19
2022-08-16T13:46:16.075Z,98113.13
2022-08-16T13:51:25.109Z,98115.03
2022-08-16T13:56:39.974Z,98109.13
2022-08-16T14:01:55.026Z,98102.78
2022-08-16T14:07:02.468Z,98106.88
2022-08-16T14:12:18.065Z,98101.69
2022-08-16T14:17:27.259Z,98098.91
2022-08-16T14:22:39.726Z,98096.91
2022-08-16T14:27:54.457Z,98099.75
2022-08-16T14:33:05.783Z,98087.66
2022-08-16T14:38:13.481Z,98091.91
2022-08-16T14:43:29.781Z,98087.34
2022-08-16T14:48:38.462Z,98093.13
2022-08-16T14:53:45.153Z,98085.41
2022-08-16T14:58:50.575Z,98085.63
2022-08-16T15:03:59.357Z,98080.94
2022-08-16T15:09:04.644Z,98072.25
2022-08-16T15:14:09.789Z,98081.69
2022-08-16T15:19:22.843Z,98075.31
2022-08-16T15:24:29.543Z,98085.84
2022-08-16T15:29:40.078Z,98087.19
2022-08-16T15:34:47.677Z,98103.03
2022-08-16T15:39:56.103Z,98102.84
2022-08-16T15:45:01.366Z,98096.94
2022-08-16T15:50:10.809Z,98090.06
2022-08-16T15:55:29.649Z,98087.88
2022-08-16T16:00:40.992Z,98098.84
2022-08-16T16:05:53.918Z,98099.59
2022-08-16T16:11:05.112Z,98104.06
2022-08-16T16:16:13.241Z,98112.97
2022-08-16T16:21:25.869Z,98102.69
2022-08-16T16:26:33.034Z,98099.22
2022-08-16T16:31:39.570Z,98095.81
2022-08-16T16:36:48.625Z,98098.66
2022-08-16T16:41:55.479Z,98100.47
2022-08-16T16:47:01.688Z,98097.81
2022-08-16T16:52:11.971Z,98095.38
2022-08-16T16:57:48.901Z,98094.22
2022-08-16T17:02:56.635Z,98101.25
2022-08-16T17:08:05.068Z,98104.28
2022-08-16T17:13:10.434Z,98100.69
2022-08-16T17:19:14.811Z,98104.00
2022-08-16T17:23:59.387Z,98114.34
2022-08-16T17:29:11.080Z,98114.09
2022-08-16T17:39:27.207Z,98114.88
2022-08-16T17:40:00.495Z,98128.56
2022-08-16T17:45:05.877Z,98127.56
2022-08-16T17:50:12.397Z,98134.72
2022-08-16T17:55:24.294Z,98133.88
2022-08-16T18:00:32.021Z,98142.88
2022-08-16T18:05:40.353Z,98154.59
2022-08-16T18:10:47.934Z,98160.88
2022-08-16T18:15:55.657Z,98167.22
2022-08-16T18:21:13.088Z,98172.91
2022-08-16T18:26:20.839Z,98177.91
2022-08-16T18:31:25.797Z,98182.88
2022-08-16T18:36:31.573Z,98182.72
2022-08-16T18:41:40.066Z,98193.84
2022-08-16T18:46:51.171Z,98194.53
2022-08-16T18:52:00.243Z,98197.69
2022-08-16T18:57:08.177Z,98205.91
2022-08-16T19:02:43.113Z,98206.63
2022-08-16T19:07:38.308Z,98224.16
2022-08-16T19:12:46.039Z,98218.56
2022-08-16T19:17:51.596Z,98228.94
2022-08-16T19:23:04.432Z,98230.72
2022-08-16T19:28:44.268Z,98234.13
2022-08-16T19:33:38.476Z,98242.19
2022-08-16T19:38:43.870Z,98241.03
2022-08-16T19:43:52.287Z,98241.97
2022-08-16T19:48:57.353Z,98248.81
2022-08-16T19:54:02.497Z,98247.28
2022-08-16T19:59:39.472Z,98256.72
2022-08-16T20:04:35.935Z,98255.16
2022-08-16T20:09:41.308Z,98267.72
2022-08-16T20:14:49.327Z,98266.88
2022-08-16T20:19:54.610Z,98271.13
2022-08-16T20:25:00.078Z,98275.97
2022-08-16T20:30:09.205Z,98271.56
2022-08-16T20:35:16.633Z,98279.56
2022-08-16T20:40:28.195Z,98283.91
2022-08-16T20:45:43.922Z,98276.88
2022-08-16T20:50:49.044Z,98272.41
2022-08-16T20:55:53.941Z,98270.00
2022-08-16T21:01:01.696Z,98267.19
2022-08-16T21:06:07.360Z,98269.03
2022-08-16T21:11:12.611Z,98270.06
2022-08-16T21:16:20.335Z,98278.31
2022-08-16T21:21:31.932Z,98277.91
2022-08-16T21:26:39.196Z,98278.13
2022-08-16T21:31:46.820Z,98271.34
2022-08-16T21:36:51.797Z,98281.59
2022-08-16T21:41:56.776Z,98282.00
2022-08-16T21:47:04.449Z,98288.06
2022-08-16T21:52:25.915Z,98281.00
2022-08-16T21:57:36.164Z,98292.78
2022-08-16T22:02:49.153Z,98287.81
2022-08-16T22:07:59.570Z,98294.50
2022-08-16T22:13:07.388Z,98284.75
2022-08-16T22:18:15.306Z,98284.53
2022-08-16T22:23:24.363Z,98283.31
2022-08-16T22:28:29.316Z,98283.47
2022-08-16T22:33:36.821Z,98288.97
2022-08-16T22:38:55.980Z,98295.66
2022-08-16T22:44:02.490Z,98296.09
2022-08-16T22:49:10.791Z,98301.53
2022-08-16T22:54:44.084Z,98304.72
2022-08-16T22:59:41.889Z,98301.25
2022-08-16T23:04:49.586Z,98299.72
2022-08-16T23:09:54.797Z,98300.63
2022-08-16T23:15:01.072Z,98296.44
2022-08-16T23:20:10.877Z,98298.75
2022-08-16T23:25:19.812Z,98293.38
2022-08-16T23:30:26.410Z,98287.97
2022-08-16T23:35:45.629Z,98283.31
2022-08-16T23:40:51.728Z,98277.09
2022-08-16T23:46:00.806Z,98281.78
2022-08-16T23:51:10.752Z,98286.81
2022-08-16T23:56:18.695Z,98284.50
